createdAt,value
2022-10-17T00:00:35.571Z,59.76
2022-10-17T00:03:02.525Z,60.95
2022-10-17T00:05:29.285Z,66.40
2022-10-17T00:07:55.921Z,66.29
2022-10-17T00:10:23.603Z,60.12
2022-10-17T00:12:51.744Z,55.19
2022-10-17T00:15:20.397Z,55.49
2022-10-17T00:17:46.981Z,57.14
2022-10-17T00:20:13.873Z,59.29
2022-10-17T00:22:40.577Z,61.44
2022-10-17T00:25:07.519Z,65.12
2022-10-17T00:27:41.649Z,64.76
2022-10-17T00:30:12.119Z,57.29
2022-10-17T00:32:38.784Z,54.63
2022-10-17T00:35:05.596Z,55.78
2022-10-17T00:37:33.049Z,56.96
2022-10-17T00:39:59.603Z,58.95
2022-10-17T00:42:27.647Z,60.29
2022-10-17T00:45:05.954Z,66.30
2022-10-17T00:47:33.744Z,65.86
2022-10-17T00:52:33.185Z,53.59
2022-10-17T00:55:12.055Z,54.51
2022-10-17T00:57:39.913Z,55.54
2022-10-17T01:00:09.080Z,57.40
2022-10-17T01:02:36.168Z,58.56
2022-10-17T01:05:03.216Z,60.21
2022-10-17T01:07:34.654Z,66.18
2022-10-17T01:10:05.634Z,65.01
2022-10-17T01:12:46.458Z,61.60
2022-10-17T01:15:45.238Z,55.29
2022-10-17T01:18:40.790Z,54.06
2022-10-17T01:21:21.493Z,56.69
2022-10-17T01:24:14.436Z,59.07
2022-10-17T01:27:19.194Z,63.12
2022-10-17T01:30:14.711Z,61.85
2022-10-17T01:32:49.741Z,57.32
2022-10-17T01:35:38.235Z,55.22
2022-10-17T01:38:18.644Z,58.55
2022-10-17T01:40:55.550Z,61.10
2022-10-17T01:43:49.693Z,64.17
2022-10-17T01:46:18.588Z,63.16
2022-10-17T01:48:46.597Z,56.22
2022-10-17T01:51:23.250Z,54.29
2022-10-17T01:53:58.922Z,56.61
2022-10-17T01:56:28.604Z,58.83
2022-10-17T01:59:09.063Z,60.73
2022-10-17T02:01:38.230Z,64.57
2022-10-17T02:04:08.164Z,64.54
2022-10-17T02:06:38.148Z,57.97
2022-10-17T02:09:27.612Z,54.40
2022-10-17T02:12:32.869Z,56.10
2022-10-17T02:14:59.422Z,57.62
2022-10-17T02:17:44.859Z,59.15
2022-10-17T02:20:25.805Z,62.14
2022-10-17T02:22:59.345Z,66.47
2022-10-17T02:25:35.213Z,61.66
2022-10-17T02:28:27.176Z,55.62
2022-10-17T02:31:10.143Z,54.54
2022-10-17T02:33:47.735Z,57.63
2022-10-17T02:36:23.190Z,59.35
2022-10-17T02:38:52.744Z,60.33
2022-10-17T02:41:20.509Z,64.24
2022-10-17T02:43:49.847Z,65.63
2022-10-17T02:46:21.426Z,59.20
2022-10-17T02:49:05.878Z,52.88
2022-10-17T02:51:45.416Z,53.33
2022-10-17T02:54:28.638Z,55.20
2022-10-17T02:57:01.530Z,56.95
2022-10-17T02:59:30.752Z,58.50
2022-10-17T03:01:57.340Z,59.89
2022-10-17T03:04:23.901Z,60.16
2022-10-17T03:06:50.502Z,66.21
2022-10-17T03:09:17.151Z,65.99
2022-10-17T03:11:43.740Z,58.90
2022-10-17T03:14:10.341Z,53.07
2022-10-17T03:16:36.967Z,53.66
2022-10-17T03:19:03.915Z,55.79
2022-10-17T03:21:30.738Z,57.15
2022-10-17T03:23:57.347Z,58.01
2022-10-17T03:26:24.317Z,58.83
2022-10-17T03:28:53.625Z,60.55
2022-10-17T03:31:21.500Z,67.11
2022-10-17T03:33:48.082Z,66.72
2022-10-17T03:36:16.598Z,59.17
2022-10-17T03:38:44.053Z,54.07
2022-10-17T03:41:11.025Z,55.10
2022-10-17T03:43:37.668Z,56.62
2022-10-17T03:46:04.305Z,58.26
2022-10-17T03:48:31.578Z,60.38
2022-10-17T03:51:06.506Z,66.59
2022-10-17T03:53:33.628Z,65.41
2022-10-17T03:56:17.735Z,57.05
2022-10-17T03:58:45.036Z,54.74
2022-10-17T04:01:14.142Z,56.18
2022-10-17T04:03:41.490Z,57.75
2022-10-17T04:06:10.919Z,58.96
2022-10-17T04:08:37.852Z,60.01
2022-10-17T04:11:07.777Z,67.12
2022-10-17T04:13:35.464Z,65.14
2022-10-17T04:16:05.679Z,58.03
2022-10-17T04:18:33.053Z,54.02
2022-10-17T04:21:04.314Z,55.09
2022-10-17T04:23:31.204Z,56.53
2022-10-17T04:25:59.377Z,58.02
2022-10-17T04:28:28.193Z,59.61
2022-10-17T04:31:04.248Z,60.13
2022-10-17T04:33:32.116Z,67.77
2022-10-17T04:36:04.157Z,67.22
2022-10-17T04:38:31.390Z,60.67
2022-10-17T04:41:03.479Z,54.90
2022-10-17T04:43:31.532Z,53.74
2022-10-17T04:46:03.205Z,55.13
2022-10-17T04:48:30.639Z,56.14
2022-10-17T04:51:02.661Z,57.95
2022-10-17T04:53:32.276Z,59.16
2022-10-17T04:55:58.858Z,66.04
2022-10-17T04:58:26.111Z,67.39
2022-10-17T05:00:52.745Z,61.97
2022-10-17T05:03:19.370Z,55.65
2022-10-17T05:05:45.962Z,53.62
2022-10-17T05:08:12.866Z,54.88
2022-10-17T05:10:41.738Z,56.09
2022-10-17T05:13:08.987Z,57.81
2022-10-17T05:15:36.884Z,59.49
2022-10-17T05:18:04.968Z,60.77
2022-10-17T05:20:32.324Z,67.67
2022-10-17T05:23:00.265Z,65.77
2022-10-17T05:25:26.823Z,59.24
2022-10-17T05:27:54.115Z,53.72
2022-10-17T05:30:20.812Z,53.80
2022-10-17T05:32:47.422Z,55.69
2022-10-17T05:35:14.352Z,57.32
2022-10-17T05:37:40.961Z,59.91
2022-10-17T05:40:08.226Z,60.35
2022-10-17T05:42:34.910Z,64.86
2022-10-17T05:45:01.635Z,64.65
2022-10-17T05:47:28.484Z,56.23
2022-10-17T05:49:55.348Z,54.03
2022-10-17T05:52:21.967Z,55.49
2022-10-17T05:54:48.575Z,56.75
2022-10-17T05:57:15.221Z,59.65
2022-10-17T05:59:41.797Z,60.26
2022-10-17T06:02:10.065Z,59.70
2022-10-17T06:04:38.022Z,63.22
2022-10-17T06:07:05.179Z,65.67
2022-10-17T06:09:31.749Z,57.37
2022-10-17T06:11:58.303Z,52.74
2022-10-17T06:14:24.930Z,54.60
2022-10-17T06:16:51.477Z,55.03
2022-10-17T06:19:18.130Z,56.41
2022-10-17T06:21:44.833Z,57.64
2022-10-17T06:24:11.432Z,58.57
2022-10-17T06:26:37.997Z,58.47
2022-10-17T06:29:04.731Z,59.13
2022-10-17T06:31:31.412Z,60.33
2022-10-17T06:33:58.011Z,60.99
2022-10-17T06:36:24.555Z,61.71
2022-10-17T06:38:51.215Z,60.67
2022-10-17T06:41:19.467Z,61.11
2022-10-17T06:43:47.289Z,60.93
2022-10-17T06:46:15.783Z,61.07
2022-10-17T06:48:42.471Z,63.32
2022-10-17T06:51:11.944Z,62.49
2022-10-17T06:53:40.196Z,55.74
2022-10-17T06:56:08.437Z,52.72
2022-10-17T06:58:37.186Z,54.44
2022-10-17T07:01:12.491Z,54.82
2022-10-17T07:03:40.976Z,55.99
2022-10-17T07:06:10.873Z,55.12
2022-10-17T07:08:37.828Z,56.64
2022-10-17T07:11:16.928Z,56.33
2022-10-17T07:13:44.143Z,57.01
2022-10-17T07:16:11.350Z,57.61
2022-10-17T07:18:38.813Z,57.64
2022-10-17T07:21:06.024Z,57.55
2022-10-17T07:23:34.428Z,57.41
2022-10-17T07:26:02.856Z,56.82
2022-10-17T07:28:29.586Z,57.25
2022-10-17T07:30:56.216Z,57.31
2022-10-17T07:33:22.776Z,56.77
2022-10-17T07:35:49.415Z,57.09
2022-10-17T07:38:15.980Z,57.25
2022-10-17T07:40:42.647Z,57.27
2022-10-17T07:43:09.205Z,57.28
2022-10-17T07:45:35.846Z,56.58
2022-10-17T07:48:02.460Z,56.22
2022-10-17T07:50:29.458Z,56.21
2022-10-17T07:52:55.981Z,56.01
2022-10-17T07:55:22.535Z,56.09
2022-10-17T07:57:49.207Z,56.00
2022-10-17T08:00:15.768Z,55.65
2022-10-17T08:02:42.408Z,55.30
2022-10-17T08:05:09.383Z,55.06
2022-10-17T08:07:36.081Z,54.39
2022-10-17T08:10:02.831Z,53.78
2022-10-17T08:12:32.703Z,53.48
2022-10-17T08:14:59.968Z,53.74
2022-10-17T08:17:27.056Z,53.96
2022-10-17T08:19:53.684Z,54.24
2022-10-17T08:22:20.295Z,54.15
2022-10-17T08:24:47.092Z,53.42
2022-10-17T08:27:14.247Z,53.22
2022-10-17T08:29:41.108Z,52.85
2022-10-17T08:32:09.996Z,52.90
2022-10-17T08:34:36.851Z,52.85
2022-10-17T08:37:03.861Z,53.04
2022-10-17T08:39:30.497Z,53.11
2022-10-17T08:42:06.231Z,53.32
2022-10-17T08:44:41.984Z,52.66
2022-10-17T08:47:13.708Z,52.51
2022-10-17T08:49:57.463Z,52.63
2022-10-17T08:52:39.012Z,52.71
2022-10-17T08:55:16.145Z,52.44
2022-10-17T08:57:43.747Z,52.25
2022-10-17T09:00:31.109Z,52.01
2022-10-17T09:03:14.411Z,51.90
2022-10-17T09:06:15.123Z,51.54
2022-10-17T09:09:10.722Z,51.89
2022-10-17T09:12:09.969Z,52.11
2022-10-17T09:15:06.384Z,52.21
2022-10-17T09:18:02.178Z,52.24
2022-10-17T09:20:36.598Z,52.10
2022-10-17T09:23:18.660Z,51.63
2022-10-17T09:25:50.058Z,50.62
2022-10-17T09:28:41.826Z,50.56
2022-10-17T09:31:23.191Z,50.59
2022-10-17T09:33:54.607Z,50.99
2022-10-17T09:36:29.621Z,51.28
2022-10-17T09:38:59.834Z,51.29
2022-10-17T09:41:50.270Z,51.43
2022-10-17T09:44:20.246Z,51.59
2022-10-17T09:46:52.335Z,51.63
2022-10-17T09:49:26.148Z,51.34
2022-10-17T09:51:52.940Z,50.68
2022-10-17T09:54:26.816Z,50.85
2022-10-17T09:56:59.924Z,50.67
2022-10-17T09:59:41.982Z,50.71
2022-10-17T10:02:20.894Z,50.20
2022-10-17T10:05:21.813Z,50.50
2022-10-17T10:08:04.630Z,50.45
2022-10-17T10:10:32.462Z,50.03
2022-10-17T10:13:13.267Z,50.00
2022-10-17T10:16:04.335Z,49.82
2022-10-17T10:18:34.972Z,49.58
2022-10-17T10:21:07.749Z,49.50
2022-10-17T10:23:35.130Z,49.30
2022-10-17T10:26:05.847Z,49.36
2022-10-17T10:28:35.397Z,48.94
2022-10-17T10:31:08.024Z,49.03
2022-10-17T10:33:41.780Z,49.10
2022-10-17T10:36:09.226Z,48.75
2022-10-17T10:38:39.339Z,48.53
2022-10-17T10:41:11.740Z,48.74
2022-10-17T10:43:45.998Z,48.14
2022-10-17T10:46:26.852Z,47.83
2022-10-17T10:49:00.295Z,47.78
2022-10-17T10:51:34.998Z,47.76
2022-10-17T10:54:17.023Z,48.00
2022-10-17T10:56:49.871Z,48.16
2022-10-17T10:59:45.213Z,47.84
2022-10-17T11:02:25.211Z,46.88
2022-10-17T11:04:57.796Z,46.53
2022-10-17T11:07:35.275Z,46.47
2022-10-17T11:10:17.287Z,46.43
2022-10-17T11:12:52.816Z,46.58
2022-10-17T11:15:25.734Z,46.83
2022-10-17T11:18:00.212Z,46.53
2022-10-17T11:20:35.818Z,46.48
2022-10-17T11:23:25.624Z,46.02
2022-10-17T11:25:54.513Z,46.18
2022-10-17T11:28:23.835Z,46.16
2022-10-17T11:30:57.900Z,46.19
2022-10-17T11:33:27.545Z,46.27
2022-10-17T11:35:59.989Z,46.27
2022-10-17T11:38:32.595Z,46.60
2022-10-17T11:41:00.322Z,46.45
2022-10-17T11:43:33.199Z,46.53
2022-10-17T11:46:12.879Z,45.99
2022-10-17T11:49:01.701Z,45.58
2022-10-17T11:54:25.565Z,46.12
2022-10-17T11:56:59.201Z,46.00
2022-10-17T12:00:03.551Z,45.78
2022-10-17T12:02:42.128Z,45.78
2022-10-17T12:05:32.166Z,45.93
2022-10-17T12:08:20.254Z,46.00
2022-10-17T12:10:58.916Z,45.83
2022-10-17T12:13:46.941Z,45.75
2022-10-17T12:16:20.109Z,45.73
2022-10-17T12:18:48.634Z,45.90
2022-10-17T12:21:15.730Z,46.16
2022-10-17T12:23:52.965Z,46.03
2022-10-17T12:27:16.584Z,46.12
2022-10-17T12:29:43.106Z,46.24
2022-10-17T12:32:12.258Z,46.23
2022-10-17T12:34:39.144Z,46.25
2022-10-17T12:37:11.593Z,45.98
2022-10-17T12:39:38.020Z,46.01
2022-10-17T12:42:32.335Z,45.89
2022-10-17T12:44:58.986Z,46.04
2022-10-17T12:47:25.439Z,46.17
2022-10-17T12:49:56.459Z,46.18
2022-10-17T12:52:32.515Z,46.18
2022-10-17T12:55:12.156Z,46.14
2022-10-17T12:57:56.949Z,46.12
2022-10-17T13:00:35.107Z,46.21
2022-10-17T13:03:22.065Z,46.01
2022-10-17T13:05:57.908Z,46.13
2022-10-17T13:08:29.845Z,46.22
2022-10-17T13:10:57.295Z,46.55
2022-10-17T13:13:33.936Z,46.46
2022-10-17T13:16:01.056Z,46.37
2022-10-17T13:18:29.671Z,46.45
2022-10-17T13:21:02.159Z,46.42
2022-10-17T13:23:34.600Z,46.64
2022-10-17T13:26:10.338Z,46.93
2022-10-17T13:28:39.357Z,46.89
2022-10-17T13:31:07.174Z,47.08
2022-10-17T13:33:39.127Z,47.04
2022-10-17T13:36:16.012Z,47.00
2022-10-17T13:38:43.357Z,46.80
2022-10-17T13:41:34.948Z,46.59
2022-10-17T13:44:27.616Z,46.82
2022-10-17T13:46:55.050Z,46.62
2022-10-17T13:49:25.744Z,46.88
2022-10-17T13:51:55.378Z,47.20
2022-10-17T13:54:35.817Z,47.26
2022-10-17T13:57:04.731Z,47.43
2022-10-17T13:59:40.309Z,47.46
2022-10-17T14:02:15.500Z,47.45
2022-10-17T14:05:11.714Z,47.21
2022-10-17T14:08:09.278Z,47.30
2022-10-17T14:10:37.553Z,47.52
2022-10-17T14:13:08.303Z,47.46
2022-10-17T14:15:37.098Z,47.70
2022-10-17T14:18:07.932Z,47.77
2022-10-17T14:23:41.326Z,48.00
2022-10-17T14:26:28.121Z,48.21
2022-10-17T14:29:21.399Z,48.45
2022-10-17T14:31:50.791Z,48.66
2022-10-17T14:34:28.086Z,48.73
2022-10-17T14:36:55.332Z,48.85
2022-10-17T14:39:27.108Z,49.09
2022-10-17T14:41:54.727Z,49.13
2022-10-17T14:44:30.775Z,49.37
2022-10-17T14:47:18.141Z,49.44
2022-10-17T14:49:51.977Z,49.64
2022-10-17T14:52:19.051Z,49.91
2022-10-17T14:54:49.777Z,50.13
2022-10-17T14:57:29.427Z,50.38
2022-10-17T14:59:57.213Z,50.58
2022-10-17T15:02:25.656Z,50.70
2022-10-17T15:04:53.047Z,50.91
2022-10-17T15:07:21.255Z,51.16
2022-10-17T15:09:49.740Z,51.52
2022-10-17T15:12:25.373Z,51.73
2022-10-17T15:14:52.726Z,51.89
2022-10-17T15:17:31.503Z,52.12
2022-10-17T15:19:58.126Z,52.33
2022-10-17T15:22:24.643Z,52.57
2022-10-17T15:24:51.472Z,52.90
2022-10-17T15:27:20.753Z,53.22
2022-10-17T15:29:48.077Z,53.50
2022-10-17T15:32:15.034Z,53.76
2022-10-17T15:34:42.034Z,53.93
2022-10-17T15:37:23.032Z,54.01
2022-10-17T15:39:54.706Z,54.21
2022-10-17T15:42:26.459Z,54.42
2022-10-17T15:44:52.988Z,54.55
2022-10-17T15:47:24.829Z,54.61
2022-10-17T15:49:51.620Z,54.91
2022-10-17T15:52:19.032Z,55.17
2022-10-17T15:54:45.630Z,55.46
2022-10-17T15:57:19.489Z,55.78
2022-10-17T15:59:47.757Z,56.17
2022-10-17T16:02:15.697Z,56.35
2022-10-17T16:04:43.126Z,56.42
2022-10-17T16:07:10.058Z,56.87
2022-10-17T16:09:40.177Z,57.22
2022-10-17T16:12:14.984Z,57.40
2022-10-17T16:14:41.514Z,57.65
2022-10-17T16:17:15.353Z,57.92
2022-10-17T16:19:42.782Z,58.24
2022-10-17T16:22:20.073Z,58.52
2022-10-17T16:24:46.804Z,58.54
2022-10-17T16:27:13.465Z,58.85
2022-10-17T16:29:39.998Z,59.10
2022-10-17T16:32:12.019Z,59.34
2022-10-17T16:34:38.582Z,59.51
2022-10-17T16:37:05.647Z,59.61
2022-10-17T16:39:32.134Z,59.85
2022-10-17T16:41:58.806Z,60.00
2022-10-17T16:44:25.457Z,60.36
2022-10-17T16:46:51.969Z,60.42
2022-10-17T16:49:18.481Z,60.49
2022-10-17T16:51:45.042Z,60.60
2022-10-17T16:54:11.561Z,60.78
2022-10-17T16:56:38.196Z,60.77
2022-10-17T16:59:04.938Z,60.85
2022-10-17T17:01:31.601Z,60.88
2022-10-17T17:03:58.798Z,61.05
2022-10-17T17:06:28.795Z,61.19
2022-10-17T17:08:56.286Z,61.18
2022-10-17T17:11:25.193Z,61.31
2022-10-17T17:13:54.596Z,61.49
2022-10-17T17:16:23.019Z,61.64
2022-10-17T17:18:54.187Z,61.62
2022-10-17T17:21:20.845Z,61.54
2022-10-17T17:23:48.018Z,61.65
2022-10-17T17:26:18.224Z,61.81
2022-10-17T17:28:45.983Z,61.86
2022-10-17T17:31:18.719Z,62.01
2022-10-17T17:33:48.782Z,62.13
2022-10-17T17:36:18.552Z,62.05
2022-10-17T17:38:46.428Z,62.12
2022-10-17T17:41:14.506Z,65.32
2022-10-17T17:43:42.415Z,61.51
2022-10-17T17:46:09.675Z,55.05
2022-10-17T17:48:41.362Z,54.73
2022-10-17T17:51:10.763Z,55.84
2022-10-17T17:53:38.589Z,56.90
2022-10-17T17:56:07.862Z,57.77
2022-10-17T17:58:35.472Z,58.72
2022-10-17T18:01:08.498Z,59.20
2022-10-17T18:03:35.082Z,59.51
2022-10-17T18:06:01.629Z,59.88
2022-10-17T18:08:28.272Z,60.33
2022-10-17T18:10:56.483Z,60.52
2022-10-17T18:13:23.066Z,60.57
2022-10-17T18:15:51.977Z,60.70
2022-10-17T18:18:19.149Z,60.72
2022-10-17T18:20:45.694Z,60.61
2022-10-17T18:23:13.243Z,60.83
2022-10-17T18:25:39.882Z,60.89
2022-10-17T18:28:06.594Z,61.02
2022-10-17T18:30:37.170Z,61.02
2022-10-17T18:33:03.760Z,61.10
2022-10-17T18:35:30.294Z,61.20
2022-10-17T18:37:57.164Z,61.19
2022-10-17T18:40:23.726Z,61.32
2022-10-17T18:42:50.317Z,61.29
2022-10-17T18:45:17.549Z,61.29
2022-10-17T18:47:47.316Z,61.50
2022-10-17T18:50:14.789Z,61.47
2022-10-17T18:52:41.443Z,61.65
2022-10-17T18:55:08.482Z,61.76
2022-10-17T18:57:35.091Z,61.71
2022-10-17T19:00:01.699Z,61.61
2022-10-17T19:02:28.354Z,61.78
2022-10-17T19:04:54.975Z,61.79
2022-10-17T19:07:21.549Z,61.92
2022-10-17T19:09:48.889Z,61.94
2022-10-17T19:12:15.752Z,62.03
2022-10-17T19:14:42.362Z,62.15
2022-10-17T19:17:08.916Z,63.60
2022-10-17T19:19:36.104Z,64.05
2022-10-17T19:22:03.560Z,56.92
2022-10-17T19:24:30.439Z,54.11
2022-10-17T19:27:02.582Z,55.29
2022-10-17T19:29:31.929Z,56.61
2022-10-17T19:31:59.140Z,57.44
2022-10-17T19:34:25.910Z,58.22
2022-10-17T19:36:52.795Z,58.73
2022-10-17T19:39:22.857Z,59.53
2022-10-17T19:41:49.498Z,60.32
2022-10-17T19:44:16.893Z,60.66
2022-10-17T19:46:47.058Z,61.10
2022-10-17T19:49:14.197Z,61.36
2022-10-17T19:51:41.218Z,61.56
2022-10-17T19:54:07.953Z,61.63
2022-10-17T19:56:38.251Z,61.89
2022-10-17T19:59:06.600Z,62.03
2022-10-17T20:01:36.607Z,62.56
2022-10-17T20:04:03.270Z,61.65
2022-10-17T20:06:30.162Z,56.23
2022-10-17T20:08:56.850Z,53.44
2022-10-17T20:11:25.667Z,54.38
2022-10-17T20:13:53.036Z,55.84
2022-10-17T20:16:26.197Z,57.20
2022-10-17T20:18:55.741Z,58.07
2022-10-17T20:21:28.151Z,58.97
2022-10-17T20:23:55.193Z,59.39
2022-10-17T20:26:36.950Z,59.92
2022-10-17T20:29:11.038Z,60.38
2022-10-17T20:31:40.030Z,60.79
2022-10-17T20:34:06.623Z,61.07
2022-10-17T20:36:37.119Z,61.30
2022-10-17T20:39:04.742Z,61.37
2022-10-17T20:41:31.358Z,61.79
2022-10-17T20:43:57.988Z,61.96
2022-10-17T20:46:48.498Z,62.18
2022-10-17T20:49:15.473Z,64.09
2022-10-17T20:51:42.235Z,60.66
2022-10-17T20:54:09.162Z,56.14
2022-10-17T20:56:36.194Z,54.39
2022-10-17T20:59:08.367Z,55.49
2022-10-17T21:01:35.992Z,56.88
2022-10-17T21:04:26.867Z,57.58
2022-10-17T21:06:51.969Z,58.33
2022-10-17T21:09:19.193Z,59.14
2022-10-17T21:11:46.216Z,59.67
2022-10-17T21:14:12.921Z,59.90
2022-10-17T21:16:41.305Z,60.57
2022-10-17T21:19:07.998Z,60.92
2022-10-17T21:21:36.950Z,61.34
2022-10-17T21:24:12.490Z,61.49
2022-10-17T21:26:39.250Z,61.69
2022-10-17T21:29:07.135Z,61.97
2022-10-17T21:31:36.271Z,62.03
2022-10-17T21:34:08.961Z,62.10
2022-10-17T21:36:35.849Z,63.22
2022-10-17T21:39:03.111Z,60.49
2022-10-17T21:41:30.415Z,56.41
2022-10-17T21:44:01.288Z,54.19
2022-10-17T21:46:29.200Z,55.52
2022-10-17T21:48:56.245Z,56.51
2022-10-17T21:51:24.611Z,57.66
2022-10-17T21:53:52.532Z,58.63
2022-10-17T21:56:25.323Z,58.99
2022-10-17T21:58:51.893Z,59.55
2022-10-17T22:01:39.906Z,60.29
2022-10-17T22:04:10.711Z,60.92
2022-10-17T22:06:40.500Z,61.14
2022-10-17T22:09:11.933Z,61.69
2022-10-17T22:11:38.842Z,62.02
2022-10-17T22:14:11.135Z,62.39
2022-10-17T22:16:38.701Z,64.40
2022-10-17T22:19:06.714Z,61.98
2022-10-17T22:21:35.618Z,54.61
2022-10-17T22:24:06.537Z,53.84
2022-10-17T22:26:35.238Z,55.55
2022-10-17T22:29:02.330Z,56.60
2022-10-17T22:31:28.992Z,57.19
2022-10-17T22:33:56.122Z,58.60
2022-10-17T22:36:23.386Z,58.90
2022-10-17T22:38:50.038Z,59.68
2022-10-17T22:41:17.325Z,60.40
2022-10-17T22:43:43.976Z,60.48
2022-10-17T22:46:13.433Z,60.94
2022-10-17T22:48:40.118Z,61.21
2022-10-17T22:51:06.991Z,61.12
2022-10-17T22:53:35.179Z,61.33
2022-10-17T22:56:04.878Z,61.42
2022-10-17T22:58:32.618Z,61.77
2022-10-17T23:00:59.202Z,62.01
2022-10-17T23:03:28.880Z,62.04
2022-10-17T23:05:56.771Z,62.13
2022-10-17T23:08:25.073Z,62.12
2022-10-17T23:10:51.811Z,62.12
2022-10-17T23:13:19.972Z,62.02
2022-10-17T23:15:49.411Z,61.98
2022-10-17T23:18:16.074Z,61.88
2022-10-17T23:20:42.709Z,61.65
2022-10-17T23:23:09.322Z,61.63
2022-10-17T23:25:35.906Z,61.43
2022-10-17T23:28:03.033Z,61.18
2022-10-17T23:30:32.108Z,60.85
2022-10-17T23:32:58.708Z,60.42
2022-10-17T23:35:25.400Z,60.37
2022-10-17T23:37:52.081Z,60.19
2022-10-17T23:40:18.691Z,59.98
2022-10-17T23:42:45.395Z,59.78
2022-10-17T23:45:12.329Z,59.78
2022-10-17T23:47:39.421Z,59.79
2022-10-17T23:50:06.729Z,59.71
2022-10-17T23:52:33.373Z,59.49
2022-10-17T23:54:59.965Z,59.38
2022-10-17T23:57:26.561Z,59.43
2022-10-17T23:59:53.148Z,59.29
